createdAt,value
2022-10-09T09:42:20.134Z,62.03
2022-10-09T09:48:06.611Z,61.56
2022-10-09T09:53:41.532Z,61.56
2022-10-09T09:59:31.642Z,61.52
2022-10-09T10:05:15.214Z,61.33
2022-10-09T10:10:47.889Z,61.11
2022-10-09T10:16:28.072Z,60.84
2022-10-09T10:22:07.640Z,60.65
2022-10-09T10:27:41.158Z,60.33
2022-10-09T10:33:21.859Z,60.49
2022-10-09T10:39:00.780Z,60.41
2022-10-09T10:44:47.973Z,60.60
2022-10-09T10:50:20.706Z,60.14
2022-10-09T10:56:01.326Z,60.11
2022-10-09T11:01:41.797Z,60.04
2022-10-09T11:07:35.486Z,60.22
2022-10-09T11:13:22.413Z,60.49
2022-10-09T11:19:14.934Z,60.70
2022-10-09T11:25:09.309Z,61.21
2022-10-09T11:30:42.836Z,61.53
2022-10-09T11:36:27.294Z,61.43
2022-10-09T11:41:59.404Z,61.39
2022-10-09T11:47:33.054Z,61.36
2022-10-09T11:53:18.927Z,61.59
2022-10-09T11:59:23.666Z,61.67
2022-10-09T12:04:55.649Z,61.47
2022-10-09T12:10:33.845Z,61.80
2022-10-09T12:16:10.994Z,61.73
2022-10-09T12:21:52.169Z,61.76
2022-10-09T12:27:32.574Z,61.34
2022-10-09T12:33:43.231Z,61.43
2022-10-09T12:39:24.403Z,61.26
2022-10-09T12:44:56.175Z,61.67
2022-10-09T12:50:32.352Z,61.41
2022-10-09T12:56:11.158Z,61.36
2022-10-09T13:01:43.116Z,60.95
2022-10-09T13:07:20.934Z,61.51
2022-10-09T13:12:53.729Z,61.42
2022-10-09T13:18:24.933Z,61.39
2022-10-09T13:23:57.048Z,61.21
2022-10-09T13:29:28.869Z,61.25
2022-10-09T13:35:00.147Z,61.20
2022-10-09T13:40:31.041Z,61.00
2022-10-09T13:46:02.090Z,60.98
2022-10-09T13:51:33.291Z,61.50
2022-10-09T13:57:04.668Z,61.31
2022-10-09T14:02:36.049Z,61.48
2022-10-09T14:08:07.226Z,61.50
2022-10-09T14:13:38.304Z,61.33
2022-10-09T14:19:09.949Z,61.10
2022-10-09T14:24:41.322Z,61.31
2022-10-09T14:30:12.811Z,61.34
2022-10-09T14:35:43.821Z,61.58
2022-10-09T14:41:20.141Z,61.54
2022-10-09T14:46:53.376Z,61.53
2022-10-09T14:52:24.646Z,61.73
2022-10-09T14:57:55.706Z,61.73
2022-10-09T15:03:30.048Z,61.66
2022-10-09T15:09:06.444Z,61.50
2022-10-09T15:14:39.780Z,61.20
2022-10-09T15:20:10.999Z,61.46
2022-10-09T15:25:49.771Z,61.51
2022-10-09T15:31:25.165Z,61.40
2022-10-09T15:36:56.065Z,61.66
2022-10-09T15:42:28.377Z,61.81
2022-10-09T15:47:59.118Z,61.75
2022-10-09T15:53:30.261Z,61.76
2022-10-09T15:59:01.244Z,61.59
2022-10-09T16:04:32.902Z,61.59
2022-10-09T16:10:04.154Z,61.45
2022-10-09T16:15:35.177Z,61.48
2022-10-09T16:21:08.785Z,61.21
2022-10-09T16:26:40.152Z,60.30
2022-10-09T16:32:11.205Z,57.59
2022-10-09T16:37:42.514Z,60.87
2022-10-09T16:43:14.140Z,60.40
2022-10-09T16:48:46.279Z,58.60
2022-10-09T16:54:17.475Z,60.77
2022-10-09T16:59:49.125Z,60.40
2022-10-09T17:05:20.709Z,60.45
2022-10-09T17:10:52.088Z,60.34
2022-10-09T17:16:26.643Z,60.02
2022-10-09T17:22:02.563Z,60.13
2022-10-09T17:27:33.377Z,60.03
2022-10-09T17:33:04.506Z,59.89
2022-10-09T17:38:36.107Z,59.60
2022-10-09T17:44:07.558Z,59.49
2022-10-09T17:49:39.195Z,59.53
2022-10-09T17:55:10.528Z,59.65
2022-10-09T18:00:41.770Z,59.43
2022-10-09T18:06:15.987Z,59.54
2022-10-09T18:11:47.005Z,59.44
2022-10-09T18:17:18.357Z,59.43
2022-10-09T18:22:49.242Z,59.25
2022-10-09T18:28:20.419Z,59.37
2022-10-09T18:33:52.539Z,59.20
2022-10-09T18:39:24.235Z,59.22
2022-10-09T18:44:55.448Z,59.49
2022-10-09T18:50:26.940Z,59.41
2022-10-09T18:55:59.175Z,59.34
2022-10-09T19:01:30.437Z,59.28
2022-10-09T19:07:01.747Z,59.12
2022-10-09T19:12:32.709Z,59.38
2022-10-09T19:18:03.905Z,59.55
2022-10-09T19:23:37.240Z,59.36
2022-10-09T19:29:08.567Z,59.39
2022-10-09T19:34:39.740Z,59.48
2022-10-09T19:40:11.369Z,59.70
2022-10-09T19:45:43.005Z,59.11
2022-10-09T19:51:18.132Z,59.01
2022-10-09T19:56:49.447Z,59.19
2022-10-09T20:02:20.541Z,59.39
2022-10-09T20:07:52.076Z,59.19
2022-10-09T20:13:23.370Z,59.68
2022-10-09T20:18:55.444Z,59.39
2022-10-09T20:24:26.889Z,59.51
2022-10-09T20:29:57.901Z,59.93
2022-10-09T20:35:29.207Z,59.30
2022-10-09T20:41:06.879Z,59.54
2022-10-09T20:46:43.635Z,59.81
2022-10-09T20:52:16.831Z,59.91
2022-10-09T20:57:51.753Z,59.45
2022-10-09T21:03:30.619Z,60.11
2022-10-09T21:09:07.171Z,60.23
2022-10-09T21:14:38.591Z,59.66
2022-10-09T21:20:10.749Z,59.96
2022-10-09T21:25:59.803Z,59.93
2022-10-09T21:31:57.577Z,60.21
2022-10-09T21:37:39.298Z,59.84
2022-10-09T21:43:12.770Z,60.05
2022-10-09T21:48:43.931Z,60.12
2022-10-09T21:54:22.700Z,59.62
2022-10-09T22:00:02.227Z,60.16
2022-10-09T22:05:40.956Z,60.59
2022-10-09T22:11:12.729Z,60.08
2022-10-09T22:16:44.905Z,60.17
2022-10-09T22:22:20.331Z,60.36
2022-10-09T22:27:51.496Z,59.94
2022-10-09T22:33:24.089Z,60.37
2022-10-09T22:38:59.737Z,59.96
2022-10-09T22:44:32.003Z,60.72
2022-10-09T22:50:03.783Z,60.97
2022-10-09T22:55:35.134Z,60.60
2022-10-09T23:01:10.561Z,60.78
2022-10-09T23:06:42.458Z,60.61
2022-10-09T23:12:14.788Z,60.91
2022-10-09T23:17:45.986Z,61.03
2022-10-09T23:23:17.171Z,60.18
2022-10-09T23:28:56.054Z,60.60
2022-10-09T23:34:30.480Z,60.19
2022-10-09T23:40:04.274Z,60.79
2022-10-09T23:45:40.891Z,60.67
2022-10-09T23:51:15.406Z,60.23
2022-10-09T23:56:48.321Z,60.93
